sensor_id;sensor_type;location;lat;lon;timestamp;temperature;humidity
35894;DHT22;21994;48.204;16.516;2023-03-21T00:01:53;10.90;99.90
35894;DHT22;21994;48.204;16.516;2023-03-21T00:04:24;10.90;99.90
35894;DHT22;21994;48.204;16.516;2023-03-21T00:06:51;10.90;99.90
35894;DHT22;21994;48.204;16.516;2023-03-21T00:09:18;10.80;99.90
35894;DHT22;21994;48.204;16.516;2023-03-21T00:11:45;10.70;99.90
35894;DHT22;21994;48.204;16.516;2023-03-21T00:14:12;10.70;99.90
35894;DHT22;21994;48.204;16.516;2023-03-21T00:16:40;10.60;99.90
35894;DHT22;21994;48.204;16.516;2023-03-21T00:19:06;10.60;99.90
35894;DHT22;21994;48.204;16.516;2023-03-21T00:21:34;10.50;99.90
35894;DHT22;21994;48.204;16.516;2023-03-21T00:24:04;10.50;99.90
35894;DHT22;21994;48.204;16.516;2023-03-21T00:26:31;10.40;99.90
35894;DHT22;21994;48.204;16.516;2023-03-21T00:28:57;10.30;99.90
35894;DHT22;21994;48.204;16.516;2023-03-21T00:31:24;10.20;99.90
35894;DHT22;21994;48.204;16.516;2023-03-21T00:33:50;10.00;99.90
35894;DHT22;21994;48.204;16.516;2023-03-21T00:36:16;9.70;99.90
35894;DHT22;21994;48.204;16.516;2023-03-21T00:38:42;9.60;99.90
35894;DHT22;21994;48.204;16.516;2023-03-21T00:41:10;9.60;99.90
35894;DHT22;21994;48.204;16.516;2023-03-21T00:43:39;9.60;99.90
35894;DHT22;21994;48.204;16.516;2023-03-21T00:46:05;9.60;99.90
35894;DHT22;21994;48.204;16.516;2023-03-21T00:48:31;9.40;99.90
35894;DHT22;21994;48.204;16.516;2023-03-21T00:50:57;9.30;99.90
35894;DHT22;21994;48.204;16.516;2023-03-21T00:53:27;9.20;99.90
35894;DHT22;21994;48.204;16.516;2023-03-21T00:55:53;9.10;99.90
35894;DHT22;21994;48.204;16.516;2023-03-21T00:58:19;9.00;99.90
35894;DHT22;21994;48.204;16.516;2023-03-21T01:00:45;9.10;99.90
35894;DHT22;21994;48.204;16.516;2023-03-21T01:03:15;9.10;99.90
35894;DHT22;21994;48.204;16.516;2023-03-21T01:05:46;9.00;99.90
35894;DHT22;21994;48.204;16.516;2023-03-21T01:08:37;9.00;99.90
35894;DHT22;21994;48.204;16.516;2023-03-21T01:11:11;9.10;99.90
35894;DHT22;21994;48.204;16.516;2023-03-21T01:13:39;9.40;99.90
35894;DHT22;21994;48.204;16.516;2023-03-21T01:16:06;9.60;99.90
35894;DHT22;21994;48.204;16.516;2023-03-21T01:18:33;9.70;99.90
35894;DHT22;21994;48.204;16.516;2023-03-21T01:21:06;9.90;99.90
35894;DHT22;21994;48.204;16.516;2023-03-21T01:23:34;10.00;99.90
35894;DHT22;21994;48.204;16.516;2023-03-21T01:26:00;10.20;99.90
35894;DHT22;21994;48.204;16.516;2023-03-21T01:28:27;10.30;99.90
35894;DHT22;21994;48.204;16.516;2023-03-21T01:30:54;10.50;99.90
35894;DHT22;21994;48.204;16.516;2023-03-21T01:33:21;10.50;99.90
35894;DHT22;21994;48.204;16.516;2023-03-21T01:35:48;10.60;99.90
35894;DHT22;21994;48.204;16.516;2023-03-21T01:38:14;10.60;99.90
35894;DHT22;21994;48.204;16.516;2023-03-21T01:40:40;10.80;99.90
35894;DHT22;21994;48.204;16.516;2023-03-21T01:43:28;11.00;99.90
35894;DHT22;21994;48.204;16.516;2023-03-21T01:49:00;11.20;99.90
35894;DHT22;21994;48.204;16.516;2023-03-21T01:51:59;11.30;99.90
35894;DHT22;21994;48.204;16.516;2023-03-21T01:54:32;11.40;99.90
35894;DHT22;21994;48.204;16.516;2023-03-21T01:57:07;11.40;99.90
35894;DHT22;21994;48.204;16.516;2023-03-21T01:59:37;11.50;99.90
35894;DHT22;21994;48.204;16.516;2023-03-21T02:02:10;11.50;99.90
35894;DHT22;21994;48.204;16.516;2023-03-21T02:04:37;11.50;99.90
35894;DHT22;21994;48.204;16.516;2023-03-21T02:07:14;11.60;99.90
35894;DHT22;21994;48.204;16.516;2023-03-21T02:09:46;11.60;99.90
35894;DHT22;21994;48.204;16.516;2023-03-21T02:12:13;11.60;99.90
35894;DHT22;21994;48.204;16.516;2023-03-21T02:14:40;11.60;99.90
35894;DHT22;21994;48.204;16.516;2023-03-21T02:32:40;11.70;99.90
35894;DHT22;21994;48.204;16.516;2023-03-21T02:41:47;11.80;99.90
35894;DHT22;21994;48.204;16.516;2023-03-21T02:44:40;11.70;99.90
35894;DHT22;21994;48.204;16.516;2023-03-21T02:47:13;11.70;99.90
35894;DHT22;21994;48.204;16.516;2023-03-21T02:52:29;11.70;99.90
35894;DHT22;21994;48.204;16.516;2023-03-21T02:54:57;11.70;99.90
35894;DHT22;21994;48.204;16.516;2023-03-21T02:57:25;11.70;99.90
35894;DHT22;21994;48.204;16.516;2023-03-21T02:59:52;11.70;99.90
35894;DHT22;21994;48.204;16.516;2023-03-21T03:02:22;11.70;99.90
35894;DHT22;21994;48.204;16.516;2023-03-21T03:04:53;11.70;99.90
35894;DHT22;21994;48.204;16.516;2023-03-21T03:17:21;11.30;99.90
35894;DHT22;21994;48.204;16.516;2023-03-21T03:20:10;11.20;99.90
35894;DHT22;21994;48.204;16.516;2023-03-21T03:25:38;11.20;99.90
35894;DHT22;21994;48.204;16.516;2023-03-21T03:28:29;11.10;99.90
35894;DHT22;21994;48.204;16.516;2023-03-21T03:31:00;10.90;99.90
35894;DHT22;21994;48.204;16.516;2023-03-21T03:33:27;11.00;99.90
35894;DHT22;21994;48.204;16.516;2023-03-21T03:35:55;10.70;99.90
35894;DHT22;21994;48.204;16.516;2023-03-21T03:38:24;10.60;99.90
35894;DHT22;21994;48.204;16.516;2023-03-21T03:40:55;10.60;99.90
35894;DHT22;21994;48.204;16.516;2023-03-21T03:43:35;10.60;99.90
35894;DHT22;21994;48.204;16.516;2023-03-21T03:46:24;10.60;99.90
35894;DHT22;21994;48.204;16.516;2023-03-21T03:48:57;10.50;99.90
35894;DHT22;21994;48.204;16.516;2023-03-21T03:51:36;10.50;99.90
35894;DHT22;21994;48.204;16.516;2023-03-21T03:54:13;10.40;99.90
35894;DHT22;21994;48.204;16.516;2023-03-21T03:56:42;10.30;99.90
35894;DHT22;21994;48.204;16.516;2023-03-21T03:59:08;10.30;99.90
35894;DHT22;21994;48.204;16.516;2023-03-21T04:01:34;10.20;99.90
35894;DHT22;21994;48.204;16.516;2023-03-21T04:04:00;10.20;99.90
35894;DHT22;21994;48.204;16.516;2023-03-21T04:06:26;10.10;99.90
35894;DHT22;21994;48.204;16.516;2023-03-21T04:08:55;10.00;99.90
35894;DHT22;21994;48.204;16.516;2023-03-21T04:11:22;9.90;99.90
35894;DHT22;21994;48.204;16.516;2023-03-21T04:13:48;9.80;99.90
35894;DHT22;21994;48.204;16.516;2023-03-21T04:16:14;9.90;99.90
35894;DHT22;21994;48.204;16.516;2023-03-21T04:18:40;9.80;99.90
35894;DHT22;21994;48.204;16.516;2023-03-21T04:21:11;9.60;99.90
35894;DHT22;21994;48.204;16.516;2023-03-21T04:23:38;9.50;99.90
35894;DHT22;21994;48.204;16.516;2023-03-21T04:26:04;9.50;99.90
35894;DHT22;21994;48.204;16.516;2023-03-21T04:28:31;9.50;99.90
35894;DHT22;21994;48.204;16.516;2023-03-21T04:30:58;9.40;99.90
35894;DHT22;21994;48.204;16.516;2023-03-21T04:33:24;9.40;99.90
35894;DHT22;21994;48.204;16.516;2023-03-21T04:35:51;9.50;99.90
35894;DHT22;21994;48.204;16.516;2023-03-21T04:38:29;9.30;99.90
35894;DHT22;21994;48.204;16.516;2023-03-21T04:40:56;9.20;99.90
35894;DHT22;21994;48.204;16.516;2023-03-21T04:43:22;9.20;99.90
35894;DHT22;21994;48.204;16.516;2023-03-21T04:45:49;9.20;99.90
35894;DHT22;21994;48.204;16.516;2023-03-21T04:48:15;9.20;99.90
35894;DHT22;21994;48.204;16.516;2023-03-21T04:50:44;9.30;99.90
35894;DHT22;21994;48.204;16.516;2023-03-21T04:53:11;9.40;99.90
35894;DHT22;21994;48.204;16.516;2023-03-21T04:55:37;9.40;99.90
35894;DHT22;21994;48.204;16.516;2023-03-21T04:58:04;9.50;99.90
35894;DHT22;21994;48.204;16.516;2023-03-21T05:00:30;9.50;99.90
35894;DHT22;21994;48.204;16.516;2023-03-21T05:03:03;9.60;99.90
35894;DHT22;21994;48.204;16.516;2023-03-21T05:05:36;9.50;99.90
35894;DHT22;21994;48.204;16.516;2023-03-21T05:08:03;9.50;99.90
35894;DHT22;21994;48.204;16.516;2023-03-21T05:10:30;9.50;99.90
35894;DHT22;21994;48.204;16.516;2023-03-21T05:12:56;9.50;99.90
35894;DHT22;21994;48.204;16.516;2023-03-21T05:15:22;9.50;99.90
35894;DHT22;21994;48.204;16.516;2023-03-21T05:17:48;9.50;99.90
35894;DHT22;21994;48.204;16.516;2023-03-21T05:20:14;9.60;99.90
35894;DHT22;21994;48.204;16.516;2023-03-21T05:22:42;9.60;99.90
35894;DHT22;21994;48.204;16.516;2023-03-21T05:25:10;9.80;99.90
35894;DHT22;21994;48.204;16.516;2023-03-21T05:27:38;10.00;99.90
35894;DHT22;21994;48.204;16.516;2023-03-21T05:30:13;10.10;99.90
35894;DHT22;21994;48.204;16.516;2023-03-21T05:32:40;10.10;99.90
35894;DHT22;21994;48.204;16.516;2023-03-21T05:35:07;10.10;99.90
35894;DHT22;21994;48.204;16.516;2023-03-21T05:37:33;10.10;99.90
35894;DHT22;21994;48.204;16.516;2023-03-21T05:40:00;10.10;99.90
35894;DHT22;21994;48.204;16.516;2023-03-21T05:42:26;10.20;99.90
35894;DHT22;21994;48.204;16.516;2023-03-21T05:44:52;10.20;99.90
35894;DHT22;21994;48.204;16.516;2023-03-21T05:47:18;10.20;99.90
35894;DHT22;21994;48.204;16.516;2023-03-21T05:49:44;10.30;99.90
35894;DHT22;21994;48.204;16.516;2023-03-21T05:52:12;10.30;99.90
35894;DHT22;21994;48.204;16.516;2023-03-21T05:54:37;10.30;99.90
35894;DHT22;21994;48.204;16.516;2023-03-21T05:57:04;10.20;99.90
35894;DHT22;21994;48.204;16.516;2023-03-21T05:59:30;10.20;99.90
35894;DHT22;21994;48.204;16.516;2023-03-21T06:01:56;10.20;99.90
35894;DHT22;21994;48.204;16.516;2023-03-21T06:04:22;10.20;99.90
35894;DHT22;21994;48.204;16.516;2023-03-21T06:06:48;10.10;99.90
35894;DHT22;21994;48.204;16.516;2023-03-21T06:09:15;10.10;99.90
35894;DHT22;21994;48.204;16.516;2023-03-21T06:11:45;10.10;99.90
35894;DHT22;21994;48.204;16.516;2023-03-21T06:14:13;10.00;99.90
35894;DHT22;21994;48.204;16.516;2023-03-21T06:16:38;9.90;99.90
35894;DHT22;21994;48.204;16.516;2023-03-21T06:19:04;10.00;99.90
35894;DHT22;21994;48.204;16.516;2023-03-21T06:21:30;10.10;99.90
35894;DHT22;21994;48.204;16.516;2023-03-21T06:23:56;10.20;99.90
35894;DHT22;21994;48.204;16.516;2023-03-21T06:26:22;10.30;99.90
35894;DHT22;21994;48.204;16.516;2023-03-21T06:28:49;10.40;99.90
35894;DHT22;21994;48.204;16.516;2023-03-21T06:31:15;10.50;99.90
35894;DHT22;21994;48.204;16.516;2023-03-21T06:33:41;10.40;99.90
35894;DHT22;21994;48.204;16.516;2023-03-21T06:36:07;10.40;99.90
35894;DHT22;21994;48.204;16.516;2023-03-21T06:38:34;10.50;99.90
35894;DHT22;21994;48.204;16.516;2023-03-21T06:41:03;10.40;99.90
35894;DHT22;21994;48.204;16.516;2023-03-21T06:43:30;10.40;99.90
35894;DHT22;21994;48.204;16.516;2023-03-21T06:45:57;10.40;99.90
35894;DHT22;21994;48.204;16.516;2023-03-21T06:48:23;10.40;99.90
35894;DHT22;21994;48.204;16.516;2023-03-21T06:50:49;10.50;99.90
35894;DHT22;21994;48.204;16.516;2023-03-21T06:53:16;10.50;99.90
35894;DHT22;21994;48.204;16.516;2023-03-21T06:55:47;10.60;99.90
35894;DHT22;21994;48.204;16.516;2023-03-21T06:58:14;10.70;99.90
35894;DHT22;21994;48.204;16.516;2023-03-21T07:00:40;10.70;99.90
35894;DHT22;21994;48.204;16.516;2023-03-21T07:03:07;10.90;99.90
35894;DHT22;21994;48.204;16.516;2023-03-21T07:05:35;11.10;99.90
35894;DHT22;21994;48.204;16.516;2023-03-21T07:08:01;11.30;99.90
35894;DHT22;21994;48.204;16.516;2023-03-21T07:10:27;11.40;99.90
35894;DHT22;21994;48.204;16.516;2023-03-21T07:12:53;11.50;99.90
35894;DHT22;21994;48.204;16.516;2023-03-21T07:15:19;11.70;99.90
35894;DHT22;21994;48.204;16.516;2023-03-21T07:17:45;11.70;99.90
35894;DHT22;21994;48.204;16.516;2023-03-21T07:20:12;12.00;99.90
35894;DHT22;21994;48.204;16.516;2023-03-21T07:22:39;12.10;99.90
35894;DHT22;21994;48.204;16.516;2023-03-21T07:25:05;12.10;99.90
35894;DHT22;21994;48.204;16.516;2023-03-21T07:27:32;12.10;99.90
35894;DHT22;21994;48.204;16.516;2023-03-21T07:29:58;12.20;99.90
35894;DHT22;21994;48.204;16.516;2023-03-21T07:32:24;12.20;99.90
35894;DHT22;21994;48.204;16.516;2023-03-21T07:34:54;12.30;99.90
35894;DHT22;21994;48.204;16.516;2023-03-21T07:37:20;12.30;99.90
35894;DHT22;21994;48.204;16.516;2023-03-21T07:39:46;12.30;99.90
35894;DHT22;21994;48.204;16.516;2023-03-21T07:42:15;12.50;99.90
35894;DHT22;21994;48.204;16.516;2023-03-21T07:44:41;12.60;99.90
35894;DHT22;21994;48.204;16.516;2023-03-21T07:47:07;12.60;99.90
35894;DHT22;21994;48.204;16.516;2023-03-21T07:49:33;12.60;99.90
35894;DHT22;21994;48.204;16.516;2023-03-21T07:51:59;12.70;99.90
35894;DHT22;21994;48.204;16.516;2023-03-21T07:54:26;12.80;99.90
35894;DHT22;21994;48.204;16.516;2023-03-21T07:56:53;12.80;99.90
35894;DHT22;21994;48.204;16.516;2023-03-21T07:59:20;12.90;99.90
35894;DHT22;21994;48.204;16.516;2023-03-21T08:01:46;12.90;99.90
35894;DHT22;21994;48.204;16.516;2023-03-21T08:04:11;13.00;99.90
35894;DHT22;21994;48.204;16.516;2023-03-21T08:06:38;13.00;99.90
35894;DHT22;21994;48.204;16.516;2023-03-21T08:09:04;13.10;99.80
35894;DHT22;21994;48.204;16.516;2023-03-21T08:11:30;13.40;99.80
35894;DHT22;21994;48.204;16.516;2023-03-21T08:13:57;14.10;98.40
35894;DHT22;21994;48.204;16.516;2023-03-21T08:16:23;14.80;97.80
35894;DHT22;21994;48.204;16.516;2023-03-21T08:18:49;15.00;96.90
35894;DHT22;21994;48.204;16.516;2023-03-21T08:21:15;14.90;97.40
35894;DHT22;21994;48.204;16.516;2023-03-21T08:23:41;14.70;97.50
35894;DHT22;21994;48.204;16.516;2023-03-21T08:26:07;14.70;97.50
35894;DHT22;21994;48.204;16.516;2023-03-21T08:28:34;15.20;96.40
35894;DHT22;21994;48.204;16.516;2023-03-21T08:31:09;15.90;95.70
35894;DHT22;21994;48.204;16.516;2023-03-21T08:33:36;16.80;94.70
35894;DHT22;21994;48.204;16.516;2023-03-21T08:36:02;17.60;93.50
35894;DHT22;21994;48.204;16.516;2023-03-21T08:38:29;18.10;92.90
35894;DHT22;21994;48.204;16.516;2023-03-21T08:40:58;18.40;92.30
35894;DHT22;21994;48.204;16.516;2023-03-21T08:43:26;18.80;91.00
35894;DHT22;21994;48.204;16.516;2023-03-21T08:45:52;18.80;90.60
35894;DHT22;21994;48.204;16.516;2023-03-21T08:48:19;19.40;90.90
35894;DHT22;21994;48.204;16.516;2023-03-21T08:50:44;19.60;90.00
35894;DHT22;21994;48.204;16.516;2023-03-21T08:53:10;19.40;89.20
35894;DHT22;21994;48.204;16.516;2023-03-21T08:55:36;19.50;89.40
35894;DHT22;21994;48.204;16.516;2023-03-21T08:58:02;18.90;89.90
35894;DHT22;21994;48.204;16.516;2023-03-21T09:00:29;17.90;90.40
35894;DHT22;21994;48.204;16.516;2023-03-21T09:02:55;17.60;90.80
35894;DHT22;21994;48.204;16.516;2023-03-21T09:05:23;17.30;90.80
35894;DHT22;21994;48.204;16.516;2023-03-21T09:07:51;17.20;91.50
35894;DHT22;21994;48.204;16.516;2023-03-21T09:10:19;17.10;92.00
35894;DHT22;21994;48.204;16.516;2023-03-21T09:12:51;17.20;91.60
35894;DHT22;21994;48.204;16.516;2023-03-21T09:15:20;17.20;91.50
35894;DHT22;21994;48.204;16.516;2023-03-21T09:17:49;17.20;91.30
35894;DHT22;21994;48.204;16.516;2023-03-21T09:20:18;17.30;91.40
35894;DHT22;21994;48.204;16.516;2023-03-21T09:22:49;16.90;92.00
35894;DHT22;21994;48.204;16.516;2023-03-21T09:25:17;16.90;92.20
35894;DHT22;21994;48.204;16.516;2023-03-21T09:27:44;17.00;92.00
35894;DHT22;21994;48.204;16.516;2023-03-21T09:30:11;17.10;93.00
35894;DHT22;21994;48.204;16.516;2023-03-21T09:32:40;17.30;92.00
35894;DHT22;21994;48.204;16.516;2023-03-21T09:35:06;17.70;91.20
35894;DHT22;21994;48.204;16.516;2023-03-21T09:37:34;17.70;90.80
35894;DHT22;21994;48.204;16.516;2023-03-21T09:40:05;17.70;91.90
35894;DHT22;21994;48.204;16.516;2023-03-21T09:43:35;17.50;91.10
35894;DHT22;21994;48.204;16.516;2023-03-21T09:46:41;17.10;91.50
35894;DHT22;21994;48.204;16.516;2023-03-21T09:51:47;20.10;88.50
35894;DHT22;21994;48.204;16.516;2023-03-21T09:54:30;21.10;85.80
35894;DHT22;21994;48.204;16.516;2023-03-21T09:59:55;22.10;80.90
35894;DHT22;21994;48.204;16.516;2023-03-21T10:02:40;22.30;79.70
35894;DHT22;21994;48.204;16.516;2023-03-21T10:05:13;22.70;78.80
35894;DHT22;21994;48.204;16.516;2023-03-21T10:07:44;23.10;77.00
35894;DHT22;21994;48.204;16.516;2023-03-21T10:10:19;22.40;77.90
35894;DHT22;21994;48.204;16.516;2023-03-21T10:12:49;22.50;77.60
35894;DHT22;21994;48.204;16.516;2023-03-21T10:15:19;22.70;75.80
35894;DHT22;21994;48.204;16.516;2023-03-21T10:17:55;22.70;74.60
35894;DHT22;21994;48.204;16.516;2023-03-21T10:20:32;23.00;73.10
35894;DHT22;21994;48.204;16.516;2023-03-21T10:23:02;23.30;75.30
35894;DHT22;21994;48.204;16.516;2023-03-21T10:25:56;23.60;72.80
35894;DHT22;21994;48.204;16.516;2023-03-21T10:28:34;23.10;74.20
35894;DHT22;21994;48.204;16.516;2023-03-21T10:31:05;22.30;73.60
35894;DHT22;21994;48.204;16.516;2023-03-21T10:33:37;20.80;76.10
35894;DHT22;21994;48.204;16.516;2023-03-21T10:36:11;19.90;78.50
35894;DHT22;21994;48.204;16.516;2023-03-21T10:39:07;20.60;79.10
35894;DHT22;21994;48.204;16.516;2023-03-21T10:41:43;21.90;76.50
35894;DHT22;21994;48.204;16.516;2023-03-21T10:44:12;22.80;74.70
35894;DHT22;21994;48.204;16.516;2023-03-21T10:49:30;23.00;72.40
35894;DHT22;21994;48.204;16.516;2023-03-21T10:51:59;21.70;73.50
35894;DHT22;21994;48.204;16.516;2023-03-21T10:54:30;20.80;75.10
35894;DHT22;21994;48.204;16.516;2023-03-21T10:57:04;20.30;77.10
35894;DHT22;21994;48.204;16.516;2023-03-21T11:02:15;21.40;74.60
35894;DHT22;21994;48.204;16.516;2023-03-21T11:04:44;20.80;75.40
35894;DHT22;21994;48.204;16.516;2023-03-21T11:07:13;20.30;77.70
35894;DHT22;21994;48.204;16.516;2023-03-21T11:09:44;21.30;76.70
35894;DHT22;21994;48.204;16.516;2023-03-21T11:12:17;22.20;73.90
35894;DHT22;21994;48.204;16.516;2023-03-21T11:14:47;22.40;74.00
35894;DHT22;21994;48.204;16.516;2023-03-21T11:20:00;22.80;75.30
35894;DHT22;21994;48.204;16.516;2023-03-21T11:22:40;22.50;72.80
35894;DHT22;21994;48.204;16.516;2023-03-21T11:25:31;21.90;73.10
35894;DHT22;21994;48.204;16.516;2023-03-21T11:27:58;21.90;74.50
35894;DHT22;21994;48.204;16.516;2023-03-21T11:30:31;21.60;73.70
35894;DHT22;21994;48.204;16.516;2023-03-21T11:33:01;21.20;75.90
35894;DHT22;21994;48.204;16.516;2023-03-21T11:35:36;20.90;77.40
35894;DHT22;21994;48.204;16.516;2023-03-21T11:38:03;20.70;76.60
35894;DHT22;21994;48.204;16.516;2023-03-21T11:40:32;20.30;78.00
35894;DHT22;21994;48.204;16.516;2023-03-21T11:43:25;20.10;80.00
35894;DHT22;21994;48.204;16.516;2023-03-21T11:48:44;20.10;79.30
35894;DHT22;21994;48.204;16.516;2023-03-21T11:57:13;20.00;80.00
35894;DHT22;21994;48.204;16.516;2023-03-21T12:00:32;19.50;80.60
35894;DHT22;21994;48.204;16.516;2023-03-21T12:05:36;19.30;81.20
35894;DHT22;21994;48.204;16.516;2023-03-21T12:08:17;19.70;82.80
35894;DHT22;21994;48.204;16.516;2023-03-21T12:11:18;20.10;79.70
35894;DHT22;21994;48.204;16.516;2023-03-21T12:17:20;20.10;78.90
35894;DHT22;21994;48.204;16.516;2023-03-21T12:20:09;20.10;79.70
35894;DHT22;21994;48.204;16.516;2023-03-21T12:22:57;20.20;79.50
35894;DHT22;21994;48.204;16.516;2023-03-21T12:25:31;20.00;78.40
35894;DHT22;21994;48.204;16.516;2023-03-21T12:31:21;20.00;79.10
35894;DHT22;21994;48.204;16.516;2023-03-21T12:37:46;19.30;79.80
35894;DHT22;21994;48.204;16.516;2023-03-21T12:40:03;19.30;80.00
35894;DHT22;21994;48.204;16.516;2023-03-21T12:45:29;20.00;82.80
35894;DHT22;21994;48.204;16.516;2023-03-21T12:48:14;20.40;77.10
35894;DHT22;21994;48.204;16.516;2023-03-21T12:50:44;20.40;76.70
35894;DHT22;21994;48.204;16.516;2023-03-21T12:53:34;20.10;77.80
35894;DHT22;21994;48.204;16.516;2023-03-21T12:56:09;19.70;77.00
35894;DHT22;21994;48.204;16.516;2023-03-21T12:58:46;19.30;78.30
35894;DHT22;21994;48.204;16.516;2023-03-21T13:01:22;19.30;79.70
35894;DHT22;21994;48.204;16.516;2023-03-21T13:04:05;19.30;78.70
35894;DHT22;21994;48.204;16.516;2023-03-21T13:06:32;18.90;78.90
35894;DHT22;21994;48.204;16.516;2023-03-21T13:09:05;18.90;81.20
35894;DHT22;21994;48.204;16.516;2023-03-21T13:11:37;18.50;81.80
35894;DHT22;21994;48.204;16.516;2023-03-21T13:14:13;18.50;80.10
35894;DHT22;21994;48.204;16.516;2023-03-21T13:16:48;18.40;80.50
35894;DHT22;21994;48.204;16.516;2023-03-21T13:19:30;18.10;82.20
35894;DHT22;21994;48.204;16.516;2023-03-21T13:22:09;18.00;81.90
35894;DHT22;21994;48.204;16.516;2023-03-21T13:24:42;18.10;82.40
35894;DHT22;21994;48.204;16.516;2023-03-21T13:32:38;18.40;80.20
35894;DHT22;21994;48.204;16.516;2023-03-21T13:35:23;18.30;80.50
35894;DHT22;21994;48.204;16.516;2023-03-21T13:38:02;18.30;80.30
35894;DHT22;21994;48.204;16.516;2023-03-21T13:41:02;18.10;80.50
35894;DHT22;21994;48.204;16.516;2023-03-21T13:43:44;18.10;81.00
35894;DHT22;21994;48.204;16.516;2023-03-21T13:59:12;18.80;78.60
35894;DHT22;21994;48.204;16.516;2023-03-21T14:02:23;18.60;79.10
35894;DHT22;21994;48.204;16.516;2023-03-21T14:05:16;18.40;81.10
35894;DHT22;21994;48.204;16.516;2023-03-21T14:07:48;18.30;80.70
35894;DHT22;21994;48.204;16.516;2023-03-21T14:10:22;18.20;80.80
35894;DHT22;21994;48.204;16.516;2023-03-21T14:12:53;18.20;80.20
35894;DHT22;21994;48.204;16.516;2023-03-21T14:20:25;17.80;81.60
35894;DHT22;21994;48.204;16.516;2023-03-21T14:22:53;17.80;80.70
35894;DHT22;21994;48.204;16.516;2023-03-21T14:25:21;17.70;82.40
35894;DHT22;21994;48.204;16.516;2023-03-21T14:27:59;17.60;82.10
35894;DHT22;21994;48.204;16.516;2023-03-21T14:30:27;17.70;81.60
35894;DHT22;21994;48.204;16.516;2023-03-21T14:33:02;17.50;82.40
35894;DHT22;21994;48.204;16.516;2023-03-21T14:35:32;17.60;81.30
35894;DHT22;21994;48.204;16.516;2023-03-21T14:38:17;17.80;82.60
35894;DHT22;21994;48.204;16.516;2023-03-21T14:40:51;18.10;81.30
35894;DHT22;21994;48.204;16.516;2023-03-21T14:43:20;18.00;80.90
35894;DHT22;21994;48.204;16.516;2023-03-21T14:45:50;18.00;80.90
35894;DHT22;21994;48.204;16.516;2023-03-21T14:48:17;17.90;81.00
35894;DHT22;21994;48.204;16.516;2023-03-21T14:50:50;17.70;81.00
35894;DHT22;21994;48.204;16.516;2023-03-21T14:56:18;17.30;81.90
35894;DHT22;21994;48.204;16.516;2023-03-21T14:58:47;17.20;82.70
35894;DHT22;21994;48.204;16.516;2023-03-21T15:01:20;17.00;82.20
35894;DHT22;21994;48.204;16.516;2023-03-21T15:04:03;16.90;83.50
35894;DHT22;21994;48.204;16.516;2023-03-21T15:06:30;16.70;84.10
35894;DHT22;21994;48.204;16.516;2023-03-21T15:08:59;16.60;83.90
35894;DHT22;21994;48.204;16.516;2023-03-21T15:11:37;16.70;86.50
35894;DHT22;21994;48.204;16.516;2023-03-21T15:14:06;16.90;85.20
35894;DHT22;21994;48.204;16.516;2023-03-21T15:16:34;17.00;83.00
35894;DHT22;21994;48.204;16.516;2023-03-21T15:19:01;17.00;83.00
35894;DHT22;21994;48.204;16.516;2023-03-21T15:21:36;17.20;82.60
35894;DHT22;21994;48.204;16.516;2023-03-21T15:24:08;17.10;82.30
35894;DHT22;21994;48.204;16.516;2023-03-21T15:26:42;17.10;82.50
35894;DHT22;21994;48.204;16.516;2023-03-21T15:29:09;17.10;82.20
35894;DHT22;21994;48.204;16.516;2023-03-21T15:31:38;17.00;83.40
35894;DHT22;21994;48.204;16.516;2023-03-21T15:34:05;17.10;83.20
35894;DHT22;21994;48.204;16.516;2023-03-21T15:36:40;17.10;83.10
35894;DHT22;21994;48.204;16.516;2023-03-21T15:39:13;17.10;83.00
35894;DHT22;21994;48.204;16.516;2023-03-21T15:41:41;17.00;82.80
35894;DHT22;21994;48.204;16.516;2023-03-21T15:46:49;16.90;82.70
35894;DHT22;21994;48.204;16.516;2023-03-21T15:49:19;17.00;82.40
35894;DHT22;21994;48.204;16.516;2023-03-21T15:52:13;16.90;82.80
35894;DHT22;21994;48.204;16.516;2023-03-21T15:54:48;16.70;83.30
35894;DHT22;21994;48.204;16.516;2023-03-21T15:57:21;16.60;84.20
35894;DHT22;21994;48.204;16.516;2023-03-21T15:59:49;16.70;83.20
35894;DHT22;21994;48.204;16.516;2023-03-21T16:02:22;16.60;83.50
35894;DHT22;21994;48.204;16.516;2023-03-21T16:07:49;16.40;84.80
35894;DHT22;21994;48.204;16.516;2023-03-21T16:10:44;16.40;84.90
35894;DHT22;21994;48.204;16.516;2023-03-21T16:13:11;16.50;84.30
35894;DHT22;21994;48.204;16.516;2023-03-21T16:15:39;16.40;84.80
35894;DHT22;21994;48.204;16.516;2023-03-21T16:18:06;16.50;84.20
35894;DHT22;21994;48.204;16.516;2023-03-21T16:20:39;16.30;85.20
35894;DHT22;21994;48.204;16.516;2023-03-21T16:23:12;16.30;85.70
35894;DHT22;21994;48.204;16.516;2023-03-21T16:25:39;16.20;86.50
35894;DHT22;21994;48.204;16.516;2023-03-21T16:28:12;16.10;86.80
35894;DHT22;21994;48.204;16.516;2023-03-21T16:30:39;16.10;87.10
35894;DHT22;21994;48.204;16.516;2023-03-21T16:33:05;16.10;87.30
35894;DHT22;21994;48.204;16.516;2023-03-21T16:35:30;16.10;88.60
35894;DHT22;21994;48.204;16.516;2023-03-21T16:37:56;16.10;87.50
35894;DHT22;21994;48.204;16.516;2023-03-21T16:40:27;16.10;87.80
35894;DHT22;21994;48.204;16.516;2023-03-21T16:42:55;16.00;87.10
35894;DHT22;21994;48.204;16.516;2023-03-21T16:45:21;16.00;88.20
35894;DHT22;21994;48.204;16.516;2023-03-21T16:47:48;15.90;89.10
35894;DHT22;21994;48.204;16.516;2023-03-21T16:50:30;15.80;87.60
35894;DHT22;21994;48.204;16.516;2023-03-21T16:52:58;15.80;88.90
35894;DHT22;21994;48.204;16.516;2023-03-21T16:55:25;15.70;88.30
35894;DHT22;21994;48.204;16.516;2023-03-21T16:57:52;15.60;88.50
35894;DHT22;21994;48.204;16.516;2023-03-21T17:00:24;15.50;88.30
35894;DHT22;21994;48.204;16.516;2023-03-21T17:02:52;15.40;89.60
35894;DHT22;21994;48.204;16.516;2023-03-21T17:05:24;15.30;90.20
35894;DHT22;21994;48.204;16.516;2023-03-21T17:07:52;15.10;90.30
35894;DHT22;21994;48.204;16.516;2023-03-21T17:10:23;14.90;90.30
35894;DHT22;21994;48.204;16.516;2023-03-21T17:12:50;14.70;90.20
35894;DHT22;21994;48.204;16.516;2023-03-21T17:15:17;14.60;90.40
35894;DHT22;21994;48.204;16.516;2023-03-21T17:17:43;14.40;90.70
35894;DHT22;21994;48.204;16.516;2023-03-21T17:20:18;14.30;91.00
35894;DHT22;21994;48.204;16.516;2023-03-21T17:22:47;14.10;91.30
35894;DHT22;21994;48.204;16.516;2023-03-21T17:25:14;14.00;91.30
35894;DHT22;21994;48.204;16.516;2023-03-21T17:27:41;13.90;91.50
35894;DHT22;21994;48.204;16.516;2023-03-21T17:30:19;13.70;91.70
35894;DHT22;21994;48.204;16.516;2023-03-21T17:32:53;13.60;92.00